sensor_id;sensor_type;location;lat;lon;timestamp;pressure;altitude;pressure_sealevel;temperature;humidity
43701;BME280;58809;47.984;7.964;2023-05-23T00:01:16;97113.91;;;14.49;100.00
43701;BME280;58809;47.984;7.964;2023-05-23T00:04:18;97116.19;;;14.38;100.00
43701;BME280;58809;47.984;7.964;2023-05-23T00:07:20;97117.22;;;14.37;100.00
43701;BME280;58809;47.984;7.964;2023-05-23T00:10:22;97117.81;;;14.39;100.00
43701;BME280;58809;47.984;7.964;2023-05-23T00:13:23;97123.38;;;14.31;100.00
43701;BME280;58809;47.984;7.964;2023-05-23T00:16:25;97127.06;;;14.30;100.00
43701;BME280;58809;47.984;7.964;2023-05-23T00:19:27;97123.56;;;14.30;100.00
43701;BME280;58809;47.984;7.964;2023-05-23T00:22:28;97115.00;;;14.34;100.00
43701;BME280;58809;47.984;7.964;2023-05-23T00:25:30;97121.13;;;14.28;100.00
43701;BME280;58809;47.984;7.964;2023-05-23T00:28:35;97119.09;;;14.23;100.00
43701;BME280;58809;47.984;7.964;2023-05-23T00:31:37;97127.06;;;14.17;100.00
43701;BME280;58809;47.984;7.964;2023-05-23T00:34:39;97120.94;;;14.16;100.00
43701;BME280;58809;47.984;7.964;2023-05-23T00:37:40;97124.84;;;14.07;100.00
43701;BME280;58809;47.984;7.964;2023-05-23T00:40:42;97121.31;;;14.06;100.00
43701;BME280;58809;47.984;7.964;2023-05-23T00:43:43;97121.13;;;14.15;100.00
43701;BME280;58809;47.984;7.964;2023-05-23T00:46:49;97118.28;;;14.10;100.00
43701;BME280;58809;47.984;7.964;2023-05-23T00:49:51;97119.50;;;14.00;100.00
43701;BME280;58809;47.984;7.964;2023-05-23T00:52:53;97125.25;;;13.91;100.00
43701;BME280;58809;47.984;7.964;2023-05-23T00:55:55;97118.47;;;13.75;100.00
43701;BME280;58809;47.984;7.964;2023-05-23T00:58:58;97122.53;;;13.77;100.00
43701;BME280;58809;47.984;7.964;2023-05-23T01:02:00;97124.00;;;13.80;100.00
43701;BME280;58809;47.984;7.964;2023-05-23T01:05:02;97124.00;;;13.80;100.00
43701;BME280;58809;47.984;7.964;2023-05-23T01:08:04;97132.97;;;13.79;100.00
43701;BME280;58809;47.984;7.964;2023-05-23T01:11:24;97134.44;;;13.81;100.00
43701;BME280;58809;47.984;7.964;2023-05-23T01:14:35;97135.25;;;13.89;100.00
43701;BME280;58809;47.984;7.964;2023-05-23T01:17:50;97124.81;;;13.94;100.00
43701;BME280;58809;47.984;7.964;2023-05-23T01:20:56;97125.44;;;14.02;100.00
43701;BME280;58809;47.984;7.964;2023-05-23T01:24:16;97127.69;;;14.05;100.00
43701;BME280;58809;47.984;7.964;2023-05-23T01:30:41;97138.94;;;14.21;100.00
43701;BME280;58809;47.984;7.964;2023-05-23T01:33:45;97132.38;;;14.30;100.00
43701;BME280;58809;47.984;7.964;2023-05-23T01:36:49;97134.44;;;14.35;100.00
43701;BME280;58809;47.984;7.964;2023-05-23T01:39:51;97129.09;;;14.28;100.00
43701;BME280;58809;47.984;7.964;2023-05-23T01:42:53;97131.38;;;14.18;100.00
43701;BME280;58809;47.984;7.964;2023-05-23T01:45:56;97118.88;;;14.12;100.00
43701;BME280;58809;47.984;7.964;2023-05-23T01:49:00;97127.06;;;14.17;100.00
43701;BME280;58809;47.984;7.964;2023-05-23T01:52:03;97134.22;;;14.23;100.00
43701;BME280;58809;47.984;7.964;2023-05-23T01:55:06;97135.66;;;14.32;100.00
43701;BME280;58809;47.984;7.964;2023-05-23T01:58:11;97128.69;;;14.38;100.00
43701;BME280;58809;47.984;7.964;2023-05-23T02:01:13;97127.88;;;14.44;100.00
43701;BME280;58809;47.984;7.964;2023-05-23T02:04:15;97129.88;;;14.55;100.00
43701;BME280;58809;47.984;7.964;2023-05-23T02:07:17;97129.06;;;14.61;100.00
43701;BME280;58809;47.984;7.964;2023-05-23T02:10:23;97121.28;;;14.67;100.00
43701;BME280;58809;47.984;7.964;2023-05-23T02:13:24;97130.69;;;14.76;100.00
43701;BME280;58809;47.984;7.964;2023-05-23T02:16:26;97135.59;;;14.79;100.00
43701;BME280;58809;47.984;7.964;2023-05-23T02:19:28;97131.91;;;14.80;100.00
43701;BME280;58809;47.984;7.964;2023-05-23T02:22:29;97130.06;;;14.80;100.00
43701;BME280;58809;47.984;7.964;2023-05-23T02:25:31;97138.06;;;14.80;100.00
43701;BME280;58809;47.984;7.964;2023-05-23T02:28:33;97132.28;;;14.83;100.00
43701;BME280;58809;47.984;7.964;2023-05-23T02:31:35;97135.34;;;14.87;100.00
43701;BME280;58809;47.984;7.964;2023-05-23T02:34:36;97128.00;;;14.89;100.00
43701;BME280;58809;47.984;7.964;2023-05-23T02:37:38;97130.44;;;14.91;100.00
43701;BME280;58809;47.984;7.964;2023-05-23T02:40:40;97130.00;;;14.94;100.00
43701;BME280;58809;47.984;7.964;2023-05-23T02:43:44;97127.75;;;14.91;100.00
43701;BME280;58809;47.984;7.964;2023-05-23T02:46:47;97137.59;;;14.90;100.00
43701;BME280;58809;47.984;7.964;2023-05-23T02:49:49;97135.53;;;14.92;100.00
43701;BME280;58809;47.984;7.964;2023-05-23T02:52:50;97134.50;;;15.00;100.00
43701;BME280;58809;47.984;7.964;2023-05-23T02:55:53;97138.19;;;14.99;100.00
43701;BME280;58809;47.984;7.964;2023-05-23T02:58:54;97138.59;;;15.02;100.00
43701;BME280;58809;47.984;7.964;2023-05-23T03:01:56;97138.19;;;15.06;100.00
43701;BME280;58809;47.984;7.964;2023-05-23T03:04:58;97142.47;;;15.07;100.00
43701;BME280;58809;47.984;7.964;2023-05-23T03:07:59;97129.34;;;15.05;100.00
43701;BME280;58809;47.984;7.964;2023-05-23T03:11:01;97131.41;;;15.03;100.00
43701;BME280;58809;47.984;7.964;2023-05-23T03:14:02;97132.47;;;14.95;100.00
43701;BME280;58809;47.984;7.964;2023-05-23T03:17:04;97134.78;;;14.78;100.00
43701;BME280;58809;47.984;7.964;2023-05-23T03:20:05;97136.44;;;14.66;100.00
43701;BME280;58809;47.984;7.964;2023-05-23T03:23:10;97130.72;;;14.49;100.00
43701;BME280;58809;47.984;7.964;2023-05-23T03:26:11;97131.97;;;14.33;100.00
43701;BME280;58809;47.984;7.964;2023-05-23T03:29:13;97129.75;;;14.23;100.00
43701;BME280;58809;47.984;7.964;2023-05-23T03:32:16;97139.75;;;14.35;100.00
43701;BME280;58809;47.984;7.964;2023-05-23T03:35:18;97139.53;;;14.50;100.00
43701;BME280;58809;47.984;7.964;2023-05-23T03:38:20;97132.97;;;14.59;100.00
43701;BME280;58809;47.984;7.964;2023-05-23T03:41:21;97130.94;;;14.61;100.00
43701;BME280;58809;47.984;7.964;2023-05-23T03:44:23;97134.41;;;14.68;100.00
43701;BME280;58809;47.984;7.964;2023-05-23T03:47:25;97141.38;;;14.69;100.00
43701;BME280;58809;47.984;7.964;2023-05-23T03:50:28;97142.38;;;14.68;100.00
43701;BME280;58809;47.984;7.964;2023-05-23T03:53:30;97136.03;;;14.69;100.00
43701;BME280;58809;47.984;7.964;2023-05-23T03:56:32;97139.72;;;14.68;100.00
43701;BME280;58809;47.984;7.964;2023-05-23T03:59:34;97133.78;;;14.66;100.00
43701;BME280;58809;47.984;7.964;2023-05-23T04:02:37;97130.31;;;14.59;100.00
43701;BME280;58809;47.984;7.964;2023-05-23T04:05:40;97147.31;;;14.58;100.00
43701;BME280;58809;47.984;7.964;2023-05-23T04:08:43;97145.06;;;14.61;100.00
43701;BME280;58809;47.984;7.964;2023-05-23T04:11:45;97153.84;;;14.69;100.00
43701;BME280;58809;47.984;7.964;2023-05-23T04:14:47;97150.56;;;14.73;100.00
43701;BME280;58809;47.984;7.964;2023-05-23T04:17:50;97160.59;;;14.85;100.00
43701;BME280;58809;47.984;7.964;2023-05-23T04:20:53;97158.72;;;14.92;100.00
43701;BME280;58809;47.984;7.964;2023-05-23T04:23:55;97165.25;;;14.96;100.00
43701;BME280;58809;47.984;7.964;2023-05-23T04:26:56;97165.66;;;14.99;100.00
43701;BME280;58809;47.984;7.964;2023-05-23T04:29:59;97158.06;;;15.03;100.00
43701;BME280;58809;47.984;7.964;2023-05-23T04:33:01;97158.66;;;15.12;100.00
43701;BME280;58809;47.984;7.964;2023-05-23T04:36:04;97158.00;;;15.23;100.00
43701;BME280;58809;47.984;7.964;2023-05-23T04:39:10;97162.84;;;15.33;100.00
43701;BME280;58809;47.984;7.964;2023-05-23T04:42:19;97168.59;;;15.36;100.00
43701;BME280;58809;47.984;7.964;2023-05-23T04:45:51;97173.13;;;15.29;100.00
43701;BME280;58809;47.984;7.964;2023-05-23T04:49:08;97176.63;;;15.30;100.00
43701;BME280;58809;47.984;7.964;2023-05-23T04:52:13;97183.38;;;15.32;100.00
43701;BME280;58809;47.984;7.964;2023-05-23T04:55:16;97182.75;;;15.37;100.00
43701;BME280;58809;47.984;7.964;2023-05-23T04:58:18;97192.38;;;15.38;100.00
43701;BME280;58809;47.984;7.964;2023-05-23T05:01:20;97191.53;;;15.44;100.00
43701;BME280;58809;47.984;7.964;2023-05-23T05:04:25;97185.75;;;15.54;100.00
43701;BME280;58809;47.984;7.964;2023-05-23T05:07:27;97187.34;;;15.62;100.00
43701;BME280;58809;47.984;7.964;2023-05-23T05:10:29;97186.06;;;15.71;100.00
43701;BME280;58809;47.984;7.964;2023-05-23T05:13:31;97182.72;;;15.82;100.00
43701;BME280;58809;47.984;7.964;2023-05-23T05:16:33;97171.22;;;15.88;100.00
43701;BME280;58809;47.984;7.964;2023-05-23T05:19:35;97182.38;;;16.04;100.00
43701;BME280;58809;47.984;7.964;2023-05-23T05:22:37;97185.22;;;16.09;100.00
43701;BME280;58809;47.984;7.964;2023-05-23T05:25:44;97195.00;;;16.22;100.00
43701;BME280;58809;47.984;7.964;2023-05-23T05:28:46;97195.56;;;16.30;100.00
43701;BME280;58809;47.984;7.964;2023-05-23T05:31:48;97195.22;;;16.45;100.00
43701;BME280;58809;47.984;7.964;2023-05-23T05:34:49;97194.28;;;16.58;100.00
43701;BME280;58809;47.984;7.964;2023-05-23T05:37:52;97190.66;;;16.71;100.00
43701;BME280;58809;47.984;7.964;2023-05-23T05:40:53;97199.22;;;16.80;100.00
43701;BME280;58809;47.984;7.964;2023-05-23T05:43:58;97198.38;;;16.86;100.00
43701;BME280;58809;47.984;7.964;2023-05-23T05:46:59;97200.81;;;17.06;100.00
43701;BME280;58809;47.984;7.964;2023-05-23T05:50:04;97198.75;;;17.26;100.00
43701;BME280;58809;47.984;7.964;2023-05-23T05:53:06;97201.97;;;17.47;100.00
43701;BME280;58809;47.984;7.964;2023-05-23T05:56:09;97194.41;;;17.62;100.00
43701;BME280;58809;47.984;7.964;2023-05-23T05:59:12;97196.59;;;17.65;98.59
43701;BME280;58809;47.984;7.964;2023-05-23T06:02:14;97206.50;;;17.65;99.21
43701;BME280;58809;47.984;7.964;2023-05-23T06:05:16;97210.69;;;17.61;98.66
43701;BME280;58809;47.984;7.964;2023-05-23T06:08:19;97211.22;;;17.51;99.43
43701;BME280;58809;47.984;7.964;2023-05-23T06:11:20;97219.72;;;17.60;98.98
43701;BME280;58809;47.984;7.964;2023-05-23T06:14:22;97226.63;;;17.67;96.98
43701;BME280;58809;47.984;7.964;2023-05-23T06:17:24;97221.53;;;17.66;96.82
43701;BME280;58809;47.984;7.964;2023-05-23T06:20:26;97219.47;;;17.80;96.09
43701;BME280;58809;47.984;7.964;2023-05-23T06:23:29;97214.28;;;17.85;95.78
43701;BME280;58809;47.984;7.964;2023-05-23T06:26:30;97221.34;;;17.79;95.74
43701;BME280;58809;47.984;7.964;2023-05-23T06:29:32;97228.06;;;17.51;97.44
43701;BME280;58809;47.984;7.964;2023-05-23T06:32:35;97225.91;;;17.23;99.86
43701;BME280;58809;47.984;7.964;2023-05-23T06:35:37;97227.78;;;17.23;100.00
43701;BME280;58809;47.984;7.964;2023-05-23T06:38:38;97220.44;;;17.37;100.00
43701;BME280;58809;47.984;7.964;2023-05-23T06:41:40;97224.72;;;17.56;100.00
43701;BME280;58809;47.984;7.964;2023-05-23T06:44:41;97227.91;;;17.65;100.00
43701;BME280;58809;47.984;7.964;2023-05-23T06:47:45;97227.00;;;17.71;99.78
43701;BME280;58809;47.984;7.964;2023-05-23T06:50:48;97234.13;;;17.96;99.39
43701;BME280;58809;47.984;7.964;2023-05-23T06:53:50;97214.00;;;18.05;97.84
43701;BME280;58809;47.984;7.964;2023-05-23T06:56:51;97227.78;;;18.20;96.88
43701;BME280;58809;47.984;7.964;2023-05-23T06:59:54;97231.53;;;18.31;96.82
43701;BME280;58809;47.984;7.964;2023-05-23T07:02:56;97239.13;;;18.46;95.52
43701;BME280;58809;47.984;7.964;2023-05-23T07:06:02;97232.16;;;18.57;94.65
43701;BME280;58809;47.984;7.964;2023-05-23T07:09:04;97238.94;;;18.71;93.78
43701;BME280;58809;47.984;7.964;2023-05-23T07:12:06;97240.31;;;18.74;93.51
43701;BME280;58809;47.984;7.964;2023-05-23T07:15:11;97238.00;;;18.65;94.08
43701;BME280;58809;47.984;7.964;2023-05-23T07:18:22;97231.59;;;18.78;93.64
43701;BME280;58809;47.984;7.964;2023-05-23T07:21:25;97249.09;;;18.81;93.06
43701;BME280;58809;47.984;7.964;2023-05-23T07:24:26;97241.41;;;18.84;92.39
43701;BME280;58809;47.984;7.964;2023-05-23T07:27:30;97239.53;;;18.97;91.48
43701;BME280;58809;47.984;7.964;2023-05-23T07:30:31;97243.16;;;19.14;90.69
43701;BME280;58809;47.984;7.964;2023-05-23T07:33:34;97239.75;;;19.31;89.30
43701;BME280;58809;47.984;7.964;2023-05-23T07:36:38;97248.00;;;19.53;88.50
43701;BME280;58809;47.984;7.964;2023-05-23T07:39:43;97252.13;;;19.72;87.16
43701;BME280;58809;47.984;7.964;2023-05-23T07:42:46;97241.44;;;20.01;85.66
43701;BME280;58809;47.984;7.964;2023-05-23T07:45:47;97240.88;;;20.16;84.50
43701;BME280;58809;47.984;7.964;2023-05-23T07:48:49;97245.47;;;20.49;82.86
43701;BME280;58809;47.984;7.964;2023-05-23T07:51:51;97244.53;;;20.72;80.83
43701;BME280;58809;47.984;7.964;2023-05-23T07:54:53;97244.00;;;20.58;80.42
43701;BME280;58809;47.984;7.964;2023-05-23T07:57:55;97233.84;;;20.44;81.82
43701;BME280;58809;47.984;7.964;2023-05-23T08:00:58;97237.50;;;20.54;81.90
43701;BME280;58809;47.984;7.964;2023-05-23T08:04:20;97238.78;;;20.18;83.64
43701;BME280;58809;47.984;7.964;2023-05-23T08:07:26;97232.06;;;20.04;84.45
43701;BME280;58809;47.984;7.964;2023-05-23T08:10:32;97242.47;;;20.46;82.56
43701;BME280;58809;47.984;7.964;2023-05-23T08:13:41;97249.75;;;20.96;80.00
43701;BME280;58809;47.984;7.964;2023-05-23T08:17:03;97242.16;;;20.59;78.97
43701;BME280;58809;47.984;7.964;2023-05-23T08:20:05;97258.34;;;20.30;81.39
43701;BME280;58809;47.984;7.964;2023-05-23T08:23:09;97247.97;;;19.76;83.75
43701;BME280;58809;47.984;7.964;2023-05-23T08:26:12;97247.19;;;19.29;86.77
43701;BME280;58809;47.984;7.964;2023-05-23T08:29:14;97246.75;;;19.08;88.93
43701;BME280;58809;47.984;7.964;2023-05-23T08:32:16;97261.81;;;19.09;89.25
43701;BME280;58809;47.984;7.964;2023-05-23T08:35:20;97258.16;;;19.39;88.42
43701;BME280;58809;47.984;7.964;2023-05-23T08:38:22;97252.75;;;20.03;85.18
43701;BME280;58809;47.984;7.964;2023-05-23T08:41:35;97256.88;;;20.23;81.54
43701;BME280;58809;47.984;7.964;2023-05-23T08:44:41;97251.53;;;20.11;81.13
43701;BME280;58809;47.984;7.964;2023-05-23T08:47:45;97255.56;;;20.25;79.96
43701;BME280;58809;47.984;7.964;2023-05-23T08:50:49;97253.84;;;20.19;79.02
43701;BME280;58809;47.984;7.964;2023-05-23T08:53:55;97256.63;;;20.24;78.98
43701;BME280;58809;47.984;7.964;2023-05-23T08:56:58;97256.19;;;20.15;78.86
43701;BME280;58809;47.984;7.964;2023-05-23T09:00:00;97257.69;;;20.23;77.86
43701;BME280;58809;47.984;7.964;2023-05-23T09:03:07;97254.63;;;20.48;76.72
43701;BME280;58809;47.984;7.964;2023-05-23T09:06:20;97274.22;;;20.61;75.61
43701;BME280;58809;47.984;7.964;2023-05-23T09:09:22;97272.75;;;20.70;74.80
43701;BME280;58809;47.984;7.964;2023-05-23T09:12:24;97275.31;;;20.48;75.36
43701;BME280;58809;47.984;7.964;2023-05-23T09:15:27;97272.75;;;20.24;75.99
43701;BME280;58809;47.984;7.964;2023-05-23T09:18:37;97271.53;;;20.32;76.09
43701;BME280;58809;47.984;7.964;2023-05-23T09:21:43;97269.09;;;20.30;76.00
43701;BME280;58809;47.984;7.964;2023-05-23T09:25:06;97266.91;;;20.44;75.64
43701;BME280;58809;47.984;7.964;2023-05-23T09:28:08;97277.81;;;20.66;74.95
43701;BME280;58809;47.984;7.964;2023-05-23T09:31:12;97272.22;;;20.56;75.00
43701;BME280;58809;47.984;7.964;2023-05-23T09:34:13;97275.94;;;20.55;75.18
43701;BME280;58809;47.984;7.964;2023-05-23T09:37:15;97276.91;;;20.61;74.37
43701;BME280;58809;47.984;7.964;2023-05-23T09:40:19;97283.91;;;20.62;74.45
43701;BME280;58809;47.984;7.964;2023-05-23T09:43:28;97284.31;;;20.87;73.39
43701;BME280;58809;47.984;7.964;2023-05-23T09:46:29;97276.81;;;20.72;73.73
43701;BME280;58809;47.984;7.964;2023-05-23T09:49:31;97271.59;;;20.66;73.37
43701;BME280;58809;47.984;7.964;2023-05-23T09:52:36;97270.66;;;20.43;74.25
43701;BME280;58809;47.984;7.964;2023-05-23T09:55:41;97273.22;;;20.67;73.04
43701;BME280;58809;47.984;7.964;2023-05-23T09:58:45;97275.66;;;21.02;72.36
43701;BME280;58809;47.984;7.964;2023-05-23T10:01:47;97269.66;;;21.17;71.42
43701;BME280;58809;47.984;7.964;2023-05-23T10:04:50;97275.25;;;21.10;71.14
43701;BME280;58809;47.984;7.964;2023-05-23T10:07:53;97271.00;;;20.81;72.50
43701;BME280;58809;47.984;7.964;2023-05-23T10:14:39;97279.16;;;20.86;73.20
43701;BME280;58809;47.984;7.964;2023-05-23T10:18:02;97280.47;;;21.39;70.62
43701;BME280;58809;47.984;7.964;2023-05-23T10:21:10;97272.97;;;21.80;69.49
43701;BME280;58809;47.984;7.964;2023-05-23T10:24:13;97273.91;;;21.69;69.14
43701;BME280;58809;47.984;7.964;2023-05-23T10:27:14;97273.59;;;21.87;68.78
43701;BME280;58809;47.984;7.964;2023-05-23T10:30:16;97267.75;;;21.73;67.78
43701;BME280;58809;47.984;7.964;2023-05-23T10:33:18;97267.34;;;21.60;67.28
43701;BME280;58809;47.984;7.964;2023-05-23T10:36:36;97270.00;;;22.04;66.03
43701;BME280;58809;47.984;7.964;2023-05-23T10:40:04;97257.09;;;22.60;64.53
43701;BME280;58809;47.984;7.964;2023-05-23T10:43:28;97265.81;;;21.91;65.09
43701;BME280;58809;47.984;7.964;2023-05-23T10:49:54;97260.16;;;21.48;66.77
43701;BME280;58809;47.984;7.964;2023-05-23T10:52:56;97248.50;;;21.87;65.67
43701;BME280;58809;47.984;7.964;2023-05-23T10:55:57;97255.59;;;21.93;65.01
43701;BME280;58809;47.984;7.964;2023-05-23T10:58:59;97248.94;;;22.01;63.82
43701;BME280;58809;47.984;7.964;2023-05-23T11:02:02;97250.34;;;22.08;63.82
43701;BME280;58809;47.984;7.964;2023-05-23T11:05:21;97249.84;;;22.11;64.00
43701;BME280;58809;47.984;7.964;2023-05-23T11:08:23;97243.03;;;22.04;63.67
43701;BME280;58809;47.984;7.964;2023-05-23T11:12:04;97244.56;;;21.95;63.68
43701;BME280;58809;47.984;7.964;2023-05-23T11:15:25;97255.91;;;22.24;62.88
43701;BME280;58809;47.984;7.964;2023-05-23T11:18:26;97247.63;;;22.30;63.24
43701;BME280;58809;47.984;7.964;2023-05-23T11:21:29;97243.97;;;22.15;63.78
43701;BME280;58809;47.984;7.964;2023-05-23T11:27:52;97239.84;;;21.19;65.74
43701;BME280;58809;47.984;7.964;2023-05-23T11:30:55;97241.84;;;21.45;65.13
43701;BME280;58809;47.984;7.964;2023-05-23T11:33:57;97256.28;;;21.61;64.45
43701;BME280;58809;47.984;7.964;2023-05-23T11:36:59;97256.97;;;21.73;64.39
43701;BME280;58809;47.984;7.964;2023-05-23T11:40:30;97257.31;;;22.26;62.36
43701;BME280;58809;47.984;7.964;2023-05-23T11:43:32;97246.03;;;22.29;61.89
43701;BME280;58809;47.984;7.964;2023-05-23T11:46:34;97262.25;;;21.85;62.29
43701;BME280;58809;47.984;7.964;2023-05-23T11:49:36;97250.59;;;21.58;63.32
43701;BME280;58809;47.984;7.964;2023-05-23T11:52:38;97245.91;;;21.70;63.20
43701;BME280;58809;47.984;7.964;2023-05-23T11:55:47;97242.81;;;21.61;63.71
43701;BME280;58809;47.984;7.964;2023-05-23T11:58:49;97245.78;;;21.82;62.86
43701;BME280;58809;47.984;7.964;2023-05-23T12:01:52;97252.50;;;22.06;62.68
43701;BME280;58809;47.984;7.964;2023-05-23T12:04:53;97243.16;;;22.74;60.32
43701;BME280;58809;47.984;7.964;2023-05-23T12:07:55;97251.19;;;22.68;60.26
43701;BME280;58809;47.984;7.964;2023-05-23T12:11:00;97237.81;;;22.84;59.99
43701;BME280;58809;47.984;7.964;2023-05-23T12:14:02;97238.16;;;22.93;59.62
43701;BME280;58809;47.984;7.964;2023-05-23T12:17:06;97240.34;;;22.26;61.11
43701;BME280;58809;47.984;7.964;2023-05-23T12:20:10;97250.38;;;21.86;62.23
43701;BME280;58809;47.984;7.964;2023-05-23T12:23:22;97231.31;;;21.66;62.49
43701;BME280;58809;47.984;7.964;2023-05-23T12:26:23;97233.44;;;21.86;62.40
43701;BME280;58809;47.984;7.964;2023-05-23T12:29:33;97239.84;;;22.34;61.27
43701;BME280;58809;47.984;7.964;2023-05-23T12:32:39;97238.53;;;22.37;60.78
43701;BME280;58809;47.984;7.964;2023-05-23T12:35:42;97250.09;;;22.10;61.35
43701;BME280;58809;47.984;7.964;2023-05-23T12:38:47;97241.31;;;21.92;61.72
43701;BME280;58809;47.984;7.964;2023-05-23T12:41:49;97236.75;;;22.47;60.36
43701;BME280;58809;47.984;7.964;2023-05-23T12:44:52;97242.31;;;22.68;59.71
43701;BME280;58809;47.984;7.964;2023-05-23T12:47:54;97239.72;;;22.83;59.23
43701;BME280;58809;47.984;7.964;2023-05-23T12:50:56;97228.13;;;22.83;58.99
43701;BME280;58809;47.984;7.964;2023-05-23T12:53:57;97222.69;;;23.15;58.58
43701;BME280;58809;47.984;7.964;2023-05-23T12:56:59;97232.44;;;23.21;58.41
43701;BME280;58809;47.984;7.964;2023-05-23T13:00:01;97223.34;;;22.95;59.12
43701;BME280;58809;47.984;7.964;2023-05-23T13:03:03;97218.31;;;23.09;58.78
43701;BME280;58809;47.984;7.964;2023-05-23T13:06:06;97225.53;;;23.03;58.58
43701;BME280;58809;47.984;7.964;2023-05-23T13:09:08;97228.72;;;22.58;59.15
43701;BME280;58809;47.984;7.964;2023-05-23T13:12:10;97223.06;;;22.27;60.00
43701;BME280;58809;47.984;7.964;2023-05-23T13:15:12;97227.31;;;22.50;59.64
43701;BME280;58809;47.984;7.964;2023-05-23T13:18:14;97221.88;;;22.77;58.29
43701;BME280;58809;47.984;7.964;2023-05-23T13:21:16;97214.97;;;22.92;58.38
43701;BME280;58809;47.984;7.964;2023-05-23T13:24:17;97214.63;;;23.25;57.82
43701;BME280;58809;47.984;7.964;2023-05-23T13:27:19;97208.31;;;23.57;56.91
43701;BME280;58809;47.984;7.964;2023-05-23T13:30:22;97202.03;;;23.52;56.85
43701;BME280;58809;47.984;7.964;2023-05-23T13:33:24;97218.59;;;23.71;56.25
43701;BME280;58809;47.984;7.964;2023-05-23T13:36:26;97212.19;;;23.82;55.33
43701;BME280;58809;47.984;7.964;2023-05-23T13:39:28;97216.53;;;23.98;54.98
43701;BME280;58809;47.984;7.964;2023-05-23T13:42:29;97218.97;;;24.10;54.61
43701;BME280;58809;47.984;7.964;2023-05-23T13:45:31;97214.94;;;24.13;54.26
43701;BME280;58809;47.984;7.964;2023-05-23T13:48:34;97213.34;;;24.37;53.63
43701;BME280;58809;47.984;7.964;2023-05-23T13:51:35;97213.59;;;24.20;53.74
43701;BME280;58809;47.984;7.964;2023-05-23T13:54:40;97210.63;;;24.22;53.67
43701;BME280;58809;47.984;7.964;2023-05-23T13:57:42;97219.28;;;24.45;53.13
43701;BME280;58809;47.984;7.964;2023-05-23T14:00:43;97204.94;;;24.34;53.20
43701;BME280;58809;47.984;7.964;2023-05-23T14:03:45;97198.19;;;24.72;52.42
43701;BME280;58809;47.984;7.964;2023-05-23T14:06:46;97194.41;;;24.58;52.77
43701;BME280;58809;47.984;7.964;2023-05-23T14:09:48;97186.53;;;24.92;52.38
43701;BME280;58809;47.984;7.964;2023-05-23T14:12:50;97192.00;;;24.72;52.03
43701;BME280;58809;47.984;7.964;2023-05-23T14:15:51;97189.75;;;25.05;51.44
43701;BME280;58809;47.984;7.964;2023-05-23T14:18:54;97199.25;;;24.97;51.54
43701;BME280;58809;47.984;7.964;2023-05-23T14:21:56;97201.38;;;25.21;50.75
43701;BME280;58809;47.984;7.964;2023-05-23T14:24:57;97199.19;;;25.23;50.30
43701;BME280;58809;47.984;7.964;2023-05-23T14:27:59;97200.72;;;25.54;50.89
43701;BME280;58809;47.984;7.964;2023-05-23T14:31:00;97207.13;;;25.74;49.33
43701;BME280;58809;47.984;7.964;2023-05-23T14:34:02;97211.50;;;25.70;49.41
43701;BME280;58809;47.984;7.964;2023-05-23T14:37:04;97201.19;;;25.72;49.28
43701;BME280;58809;47.984;7.964;2023-05-23T14:40:06;97202.25;;;25.71;48.91
43701;BME280;58809;47.984;7.964;2023-05-23T14:43:10;97196.28;;;24.88;50.78
43701;BME280;58809;47.984;7.964;2023-05-23T14:46:12;97196.56;;;24.97;51.07
43701;BME280;58809;47.984;7.964;2023-05-23T14:49:18;97193.31;;;24.90;50.58
43701;BME280;58809;47.984;7.964;2023-05-23T14:52:20;97203.03;;;24.91;51.18
43701;BME280;58809;47.984;7.964;2023-05-23T14:55:21;97193.19;;;25.41;49.85
43701;BME280;58809;47.984;7.964;2023-05-23T14:58:23;97198.91;;;25.89;48.92
43701;BME280;58809;47.984;7.964;2023-05-23T15:01:26;97191.34;;;25.86;48.55
43701;BME280;58809;47.984;7.964;2023-05-23T15:04:27;97216.81;;;25.90;48.02
43701;BME280;58809;47.984;7.964;2023-05-23T15:07:29;97200.25;;;25.97;48.12
43701;BME280;58809;47.984;7.964;2023-05-23T15:10:31;97197.59;;;25.82;48.44
43701;BME280;58809;47.984;7.964;2023-05-23T15:13:33;97189.38;;;26.42;47.29
43701;BME280;58809;47.984;7.964;2023-05-23T15:16:34;97202.34;;;26.45;46.99
43701;BME280;58809;47.984;7.964;2023-05-23T15:19:37;97185.72;;;25.78;48.34
43701;BME280;58809;47.984;7.964;2023-05-23T15:22:43;97182.94;;;26.67;46.95
43701;BME280;58809;47.984;7.964;2023-05-23T15:25:44;97177.34;;;27.55;45.74
43701;BME280;58809;47.984;7.964;2023-05-23T15:28:50;97171.38;;;27.10;45.63
43701;BME280;58809;47.984;7.964;2023-05-23T15:31:51;97182.53;;;26.10;46.94
43701;BME280;58809;47.984;7.964;2023-05-23T15:34:54;97183.22;;;25.26;48.10
43701;BME280;58809;47.984;7.964;2023-05-23T15:37:55;97184.22;;;25.46;47.49
43701;BME280;58809;47.984;7.964;2023-05-23T15:40:57;97187.34;;;27.40;44.89
43701;BME280;58809;47.984;7.964;2023-05-23T15:43:59;97183.59;;;30.53;40.07
43701;BME280;58809;47.984;7.964;2023-05-23T15:47:01;97191.13;;;32.08;37.23
43701;BME280;58809;47.984;7.964;2023-05-23T15:50:03;97202.00;;;29.88;40.29
43701;BME280;58809;47.984;7.964;2023-05-23T15:53:05;97208.25;;;30.03;40.11
43701;BME280;58809;47.984;7.964;2023-05-23T15:56:07;97203.63;;;28.40;41.23
43701;BME280;58809;47.984;7.964;2023-05-23T15:59:08;97204.28;;;28.70;41.33
43701;BME280;58809;47.984;7.964;2023-05-23T16:02:10;97216.66;;;31.37;37.45
43701;BME280;58809;47.984;7.964;2023-05-23T16:05:12;97200.66;;;28.23;40.78
43701;BME280;58809;47.984;7.964;2023-05-23T16:08:13;97200.25;;;25.97;44.26
43701;BME280;58809;47.984;7.964;2023-05-23T16:11:15;97208.03;;;25.54;45.48
43701;BME280;58809;47.984;7.964;2023-05-23T16:14:16;97205.94;;;29.96;39.74
43701;BME280;58809;47.984;7.964;2023-05-23T16:17:18;97209.94;;;34.37;33.63
43701;BME280;58809;47.984;7.964;2023-05-23T16:20:19;97212.34;;;34.38;32.61